sensor_id;sensor_type;location;lat;lon;timestamp;temperature;humidity
38237;DHT22;50101;49.438;11.098;2023-11-19T00:01:52;19.20;62.30
38237;DHT22;50101;49.438;11.098;2023-11-19T00:04:19;19.20;62.30
38237;DHT22;50101;49.438;11.098;2023-11-19T00:06:46;19.20;62.30
38237;DHT22;50101;49.438;11.098;2023-11-19T00:09:13;19.20;62.20
38237;DHT22;50101;49.438;11.098;2023-11-19T00:11:39;19.20;62.20
38237;DHT22;50101;49.438;11.098;2023-11-19T00:14:06;19.20;62.30
38237;DHT22;50101;49.438;11.098;2023-11-19T00:16:35;19.20;62.30
38237;DHT22;50101;49.438;11.098;2023-11-19T00:19:01;19.20;62.30
38237;DHT22;50101;49.438;11.098;2023-11-19T00:21:30;19.20;62.20
38237;DHT22;50101;49.438;11.098;2023-11-19T00:23:57;19.20;62.30
38237;DHT22;50101;49.438;11.098;2023-11-19T00:26:25;19.20;62.30
38237;DHT22;50101;49.438;11.098;2023-11-19T00:28:51;19.20;62.30
38237;DHT22;50101;49.438;11.098;2023-11-19T00:31:19;19.20;62.30
38237;DHT22;50101;49.438;11.098;2023-11-19T00:33:46;19.20;62.30
38237;DHT22;50101;49.438;11.098;2023-11-19T00:36:16;19.20;62.30
38237;DHT22;50101;49.438;11.098;2023-11-19T00:38:43;19.20;62.30
38237;DHT22;50101;49.438;11.098;2023-11-19T00:41:09;19.20;62.20
38237;DHT22;50101;49.438;11.098;2023-11-19T00:43:36;19.20;62.30
38237;DHT22;50101;49.438;11.098;2023-11-19T00:46:03;19.20;62.30
38237;DHT22;50101;49.438;11.098;2023-11-19T00:48:33;19.20;62.30
38237;DHT22;50101;49.438;11.098;2023-11-19T00:51:00;19.20;62.30
38237;DHT22;50101;49.438;11.098;2023-11-19T00:53:26;19.20;62.30
38237;DHT22;50101;49.438;11.098;2023-11-19T00:55:53;19.20;62.30
38237;DHT22;50101;49.438;11.098;2023-11-19T00:58:20;19.20;62.30
38237;DHT22;50101;49.438;11.098;2023-11-19T01:00:47;19.20;61.60
38237;DHT22;50101;49.438;11.098;2023-11-19T01:03:14;19.10;62.10
38237;DHT22;50101;49.438;11.098;2023-11-19T01:05:42;19.20;62.30
38237;DHT22;50101;49.438;11.098;2023-11-19T01:08:10;19.20;62.30
38237;DHT22;50101;49.438;11.098;2023-11-19T01:10:37;19.10;62.10
38237;DHT22;50101;49.438;11.098;2023-11-19T01:13:04;19.20;62.30
38237;DHT22;50101;49.438;11.098;2023-11-19T01:15:33;19.10;62.10
38237;DHT22;50101;49.438;11.098;2023-11-19T01:18:00;19.10;62.10
38237;DHT22;50101;49.438;11.098;2023-11-19T01:20:28;19.10;62.10
38237;DHT22;50101;49.438;11.098;2023-11-19T01:22:55;19.10;62.10
38237;DHT22;50101;49.438;11.098;2023-11-19T01:25:22;19.20;62.30
38237;DHT22;50101;49.438;11.098;2023-11-19T01:27:49;19.10;62.10
38237;DHT22;50101;49.438;11.098;2023-11-19T01:30:16;19.10;62.10
38237;DHT22;50101;49.438;11.098;2023-11-19T01:32:43;19.10;62.10
38237;DHT22;50101;49.438;11.098;2023-11-19T01:35:10;19.10;62.10
38237;DHT22;50101;49.438;11.098;2023-11-19T01:37:37;19.20;62.30
38237;DHT22;50101;49.438;11.098;2023-11-19T01:42:37;19.10;61.50
38237;DHT22;50101;49.438;11.098;2023-11-19T01:45:05;19.10;62.20
38237;DHT22;50101;49.438;11.098;2023-11-19T01:47:35;19.10;62.10
38237;DHT22;50101;49.438;11.098;2023-11-19T01:50:03;19.10;62.10
38237;DHT22;50101;49.438;11.098;2023-11-19T01:52:35;19.10;62.10
38237;DHT22;50101;49.438;11.098;2023-11-19T01:55:07;19.10;62.10
38237;DHT22;50101;49.438;11.098;2023-11-19T01:57:35;19.10;62.10
38237;DHT22;50101;49.438;11.098;2023-11-19T02:00:05;19.10;62.10
38237;DHT22;50101;49.438;11.098;2023-11-19T02:02:32;19.10;62.10
38237;DHT22;50101;49.438;11.098;2023-11-19T02:04:59;19.10;62.10
38237;DHT22;50101;49.438;11.098;2023-11-19T02:07:26;19.10;62.10
38237;DHT22;50101;49.438;11.098;2023-11-19T02:09:53;19.10;62.10
38237;DHT22;50101;49.438;11.098;2023-11-19T02:12:20;19.10;62.10
38237;DHT22;50101;49.438;11.098;2023-11-19T02:14:47;19.10;62.10
38237;DHT22;50101;49.438;11.098;2023-11-19T02:17:30;19.10;62.00
38237;DHT22;50101;49.438;11.098;2023-11-19T02:20:07;19.10;61.40
38237;DHT22;50101;49.438;11.098;2023-11-19T02:22:36;19.10;62.00
38237;DHT22;50101;49.438;11.098;2023-11-19T02:25:29;19.10;62.10
38237;DHT22;50101;49.438;11.098;2023-11-19T02:27:59;19.10;61.90
38237;DHT22;50101;49.438;11.098;2023-11-19T02:30:26;19.10;61.90
38237;DHT22;50101;49.438;11.098;2023-11-19T02:32:58;19.00;61.90
38237;DHT22;50101;49.438;11.098;2023-11-19T02:35:28;19.10;61.90
38237;DHT22;50101;49.438;11.098;2023-11-19T02:37:56;19.10;61.90
38237;DHT22;50101;49.438;11.098;2023-11-19T02:40:23;19.10;61.90
38237;DHT22;50101;49.438;11.098;2023-11-19T02:42:52;19.00;61.80
38237;DHT22;50101;49.438;11.098;2023-11-19T02:45:19;19.10;61.90
38237;DHT22;50101;49.438;11.098;2023-11-19T02:47:46;19.10;61.90
38237;DHT22;50101;49.438;11.098;2023-11-19T02:50:12;19.00;61.80
38237;DHT22;50101;49.438;11.098;2023-11-19T02:52:42;19.00;61.80
38237;DHT22;50101;49.438;11.098;2023-11-19T02:55:10;19.00;61.70
38237;DHT22;50101;49.438;11.098;2023-11-19T02:57:39;19.10;61.80
38237;DHT22;50101;49.438;11.098;2023-11-19T03:00:19;19.00;61.80
38237;DHT22;50101;49.438;11.098;2023-11-19T03:02:50;19.00;61.70
38237;DHT22;50101;49.438;11.098;2023-11-19T03:05:32;19.00;61.80
38237;DHT22;50101;49.438;11.098;2023-11-19T03:07:58;19.00;61.60
38237;DHT22;50101;49.438;11.098;2023-11-19T03:10:25;19.00;61.60
38237;DHT22;50101;49.438;11.098;2023-11-19T03:12:52;19.00;61.60
38237;DHT22;50101;49.438;11.098;2023-11-19T03:15:18;19.00;61.50
38237;DHT22;50101;49.438;11.098;2023-11-19T03:17:45;19.00;61.60
38237;DHT22;50101;49.438;11.098;2023-11-19T03:20:12;19.00;61.60
38237;DHT22;50101;49.438;11.098;2023-11-19T03:22:43;19.00;61.50
38237;DHT22;50101;49.438;11.098;2023-11-19T03:25:10;19.00;61.50
38237;DHT22;50101;49.438;11.098;2023-11-19T03:27:38;19.00;61.50
38237;DHT22;50101;49.438;11.098;2023-11-19T03:30:08;19.00;61.50
38237;DHT22;50101;49.438;11.098;2023-11-19T03:32:38;19.00;61.40
38237;DHT22;50101;49.438;11.098;2023-11-19T03:35:06;19.00;61.40
38237;DHT22;50101;49.438;11.098;2023-11-19T03:37:35;19.00;61.40
38237;DHT22;50101;49.438;11.098;2023-11-19T03:40:03;19.00;61.40
38237;DHT22;50101;49.438;11.098;2023-11-19T03:42:31;19.00;61.40
38237;DHT22;50101;49.438;11.098;2023-11-19T03:44:58;19.00;61.30
38237;DHT22;50101;49.438;11.098;2023-11-19T03:47:24;19.00;61.30
38237;DHT22;50101;49.438;11.098;2023-11-19T03:49:51;19.00;61.40
38237;DHT22;50101;49.438;11.098;2023-11-19T03:52:18;19.00;61.30
38237;DHT22;50101;49.438;11.098;2023-11-19T03:54:46;19.00;61.20
38237;DHT22;50101;49.438;11.098;2023-11-19T03:57:13;19.00;61.20
38237;DHT22;50101;49.438;11.098;2023-11-19T03:59:42;19.00;61.20
38237;DHT22;50101;49.438;11.098;2023-11-19T04:02:08;19.00;61.10
38237;DHT22;50101;49.438;11.098;2023-11-19T04:04:35;19.00;61.20
38237;DHT22;50101;49.438;11.098;2023-11-19T04:07:02;19.00;61.10
38237;DHT22;50101;49.438;11.098;2023-11-19T04:09:29;19.00;61.10
38237;DHT22;50101;49.438;11.098;2023-11-19T04:11:57;19.00;61.00
38237;DHT22;50101;49.438;11.098;2023-11-19T04:14:24;18.90;60.90
38237;DHT22;50101;49.438;11.098;2023-11-19T04:16:51;19.00;61.00
38237;DHT22;50101;49.438;11.098;2023-11-19T04:19:19;19.00;61.00
38237;DHT22;50101;49.438;11.098;2023-11-19T04:21:46;19.00;61.00
38237;DHT22;50101;49.438;11.098;2023-11-19T04:24:13;18.90;60.90
38237;DHT22;50101;49.438;11.098;2023-11-19T04:26:44;18.90;60.80
38237;DHT22;50101;49.438;11.098;2023-11-19T04:29:12;19.00;61.10
38237;DHT22;50101;49.438;11.098;2023-11-19T04:31:39;18.90;60.20
38237;DHT22;50101;49.438;11.098;2023-11-19T04:34:06;18.90;60.90
38237;DHT22;50101;49.438;11.098;2023-11-19T04:36:33;18.90;60.80
38237;DHT22;50101;49.438;11.098;2023-11-19T04:39:01;18.90;60.80
38237;DHT22;50101;49.438;11.098;2023-11-19T04:41:28;19.00;60.90
38237;DHT22;50101;49.438;11.098;2023-11-19T04:43:54;18.90;60.70
38237;DHT22;50101;49.438;11.098;2023-11-19T04:46:21;18.90;60.80
38237;DHT22;50101;49.438;11.098;2023-11-19T04:48:48;18.90;60.80
38237;DHT22;50101;49.438;11.098;2023-11-19T04:51:15;18.90;60.70
38237;DHT22;50101;49.438;11.098;2023-11-19T04:53:41;18.90;60.80
38237;DHT22;50101;49.438;11.098;2023-11-19T04:56:09;18.90;60.70
38237;DHT22;50101;49.438;11.098;2023-11-19T04:58:36;18.90;60.70
38237;DHT22;50101;49.438;11.098;2023-11-19T05:01:04;18.90;60.70
38237;DHT22;50101;49.438;11.098;2023-11-19T05:03:31;18.90;60.70
38237;DHT22;50101;49.438;11.098;2023-11-19T05:05:58;18.90;60.60
38237;DHT22;50101;49.438;11.098;2023-11-19T05:08:25;18.90;60.60
38237;DHT22;50101;49.438;11.098;2023-11-19T05:10:52;18.90;60.60
38237;DHT22;50101;49.438;11.098;2023-11-19T05:13:19;18.90;60.50
38237;DHT22;50101;49.438;11.098;2023-11-19T05:15:46;18.90;60.60
38237;DHT22;50101;49.438;11.098;2023-11-19T05:18:13;18.90;60.40
38237;DHT22;50101;49.438;11.098;2023-11-19T05:20:39;18.90;59.90
38237;DHT22;50101;49.438;11.098;2023-11-19T05:23:06;18.90;60.50
38237;DHT22;50101;49.438;11.098;2023-11-19T05:25:47;18.90;60.50
38237;DHT22;50101;49.438;11.098;2023-11-19T05:28:14;18.90;60.50
38237;DHT22;50101;49.438;11.098;2023-11-19T05:30:41;18.90;59.90
38237;DHT22;50101;49.438;11.098;2023-11-19T05:33:07;18.90;60.50
38237;DHT22;50101;49.438;11.098;2023-11-19T05:35:34;18.90;60.50
38237;DHT22;50101;49.438;11.098;2023-11-19T05:38:01;18.90;60.40
38237;DHT22;50101;49.438;11.098;2023-11-19T05:40:29;18.90;60.50
38237;DHT22;50101;49.438;11.098;2023-11-19T05:42:55;18.90;60.40
38237;DHT22;50101;49.438;11.098;2023-11-19T05:45:22;18.90;60.40
38237;DHT22;50101;49.438;11.098;2023-11-19T05:47:49;18.80;60.40
38237;DHT22;50101;49.438;11.098;2023-11-19T05:50:16;18.90;60.40
38237;DHT22;50101;49.438;11.098;2023-11-19T05:52:43;18.90;60.40
38237;DHT22;50101;49.438;11.098;2023-11-19T05:55:10;18.90;60.50
38237;DHT22;50101;49.438;11.098;2023-11-19T05:57:37;18.90;60.40
38237;DHT22;50101;49.438;11.098;2023-11-19T06:00:07;18.80;60.30
38237;DHT22;50101;49.438;11.098;2023-11-19T06:02:34;18.90;60.50
38237;DHT22;50101;49.438;11.098;2023-11-19T06:05:01;18.90;60.40
38237;DHT22;50101;49.438;11.098;2023-11-19T06:07:28;18.80;60.30
38237;DHT22;50101;49.438;11.098;2023-11-19T06:09:55;18.90;60.40
38237;DHT22;50101;49.438;11.098;2023-11-19T06:12:21;18.80;60.30
38237;DHT22;50101;49.438;11.098;2023-11-19T06:14:48;18.90;60.40
38237;DHT22;50101;49.438;11.098;2023-11-19T06:17:15;18.80;60.30
38237;DHT22;50101;49.438;11.098;2023-11-19T06:19:41;18.80;60.20
38237;DHT22;50101;49.438;11.098;2023-11-19T06:22:08;18.90;59.80
38237;DHT22;50101;49.438;11.098;2023-11-19T06:24:35;18.80;60.20
38237;DHT22;50101;49.438;11.098;2023-11-19T06:27:05;18.80;60.20
38237;DHT22;50101;49.438;11.098;2023-11-19T06:29:31;18.90;60.40
38237;DHT22;50101;49.438;11.098;2023-11-19T06:31:58;18.80;60.20
38237;DHT22;50101;49.438;11.098;2023-11-19T06:34:25;18.80;60.20
38237;DHT22;50101;49.438;11.098;2023-11-19T06:36:51;18.80;61.00
38237;DHT22;50101;49.438;11.098;2023-11-19T06:39:19;18.80;60.20
38237;DHT22;50101;49.438;11.098;2023-11-19T06:41:46;18.80;60.30
38237;DHT22;50101;49.438;11.098;2023-11-19T06:44:14;18.80;60.20
38237;DHT22;50101;49.438;11.098;2023-11-19T06:46:40;18.80;60.30
38237;DHT22;50101;49.438;11.098;2023-11-19T06:49:07;18.80;60.20
38237;DHT22;50101;49.438;11.098;2023-11-19T06:51:34;18.80;60.30
38237;DHT22;50101;49.438;11.098;2023-11-19T06:54:01;18.80;60.30
38237;DHT22;50101;49.438;11.098;2023-11-19T06:56:28;18.80;60.40
38237;DHT22;50101;49.438;11.098;2023-11-19T06:58:54;18.80;60.30
38237;DHT22;50101;49.438;11.098;2023-11-19T07:01:21;18.90;60.40
38237;DHT22;50101;49.438;11.098;2023-11-19T07:03:48;18.80;60.40
38237;DHT22;50101;49.438;11.098;2023-11-19T07:06:15;18.80;60.40
38237;DHT22;50101;49.438;11.098;2023-11-19T07:08:43;18.80;60.40
38237;DHT22;50101;49.438;11.098;2023-11-19T07:11:13;18.80;60.40
38237;DHT22;50101;49.438;11.098;2023-11-19T07:13:42;18.80;60.40
38237;DHT22;50101;49.438;11.098;2023-11-19T07:16:09;18.80;60.50
38237;DHT22;50101;49.438;11.098;2023-11-19T07:18:38;18.80;60.50
38237;DHT22;50101;49.438;11.098;2023-11-19T07:21:05;18.80;60.60
38237;DHT22;50101;49.438;11.098;2023-11-19T07:23:33;18.80;60.60
38237;DHT22;50101;49.438;11.098;2023-11-19T07:26:00;18.80;60.60
38237;DHT22;50101;49.438;11.098;2023-11-19T07:28:28;18.80;60.60
38237;DHT22;50101;49.438;11.098;2023-11-19T07:30:55;18.80;60.10
38237;DHT22;50101;49.438;11.098;2023-11-19T07:33:24;18.80;61.40
38237;DHT22;50101;49.438;11.098;2023-11-19T07:35:51;18.80;60.70
38237;DHT22;50101;49.438;11.098;2023-11-19T07:38:18;18.80;60.70
38237;DHT22;50101;49.438;11.098;2023-11-19T07:40:45;18.90;60.80
38237;DHT22;50101;49.438;11.098;2023-11-19T07:43:14;18.80;60.70
38237;DHT22;50101;49.438;11.098;2023-11-19T07:45:41;18.80;60.80
38237;DHT22;50101;49.438;11.098;2023-11-19T07:48:10;18.90;60.90
38237;DHT22;50101;49.438;11.098;2023-11-19T07:50:39;18.80;60.80
38237;DHT22;50101;49.438;11.098;2023-11-19T07:53:07;18.80;60.80
38237;DHT22;50101;49.438;11.098;2023-11-19T07:55:35;18.90;60.90
38237;DHT22;50101;49.438;11.098;2023-11-19T07:58:01;18.80;61.00
38237;DHT22;50101;49.438;11.098;2023-11-19T08:00:28;18.90;61.10
38237;DHT22;50101;49.438;11.098;2023-11-19T08:02:55;18.90;61.30
38237;DHT22;50101;49.438;11.098;2023-11-19T08:05:22;18.90;61.30
38237;DHT22;50101;49.438;11.098;2023-11-19T08:07:51;18.90;61.30
38237;DHT22;50101;49.438;11.098;2023-11-19T08:10:19;18.90;61.30
38237;DHT22;50101;49.438;11.098;2023-11-19T08:12:46;18.90;61.30
38237;DHT22;50101;49.438;11.098;2023-11-19T08:15:13;18.90;61.30
38237;DHT22;50101;49.438;11.098;2023-11-19T08:17:39;18.90;61.30
38237;DHT22;50101;49.438;11.098;2023-11-19T08:20:07;18.90;61.30
38237;DHT22;50101;49.438;11.098;2023-11-19T08:22:37;18.90;61.60
38237;DHT22;50101;49.438;11.098;2023-11-19T08:25:05;18.90;61.40
38237;DHT22;50101;49.438;11.098;2023-11-19T08:27:32;18.90;61.30
38237;DHT22;50101;49.438;11.098;2023-11-19T08:29:59;18.90;61.40
38237;DHT22;50101;49.438;11.098;2023-11-19T08:32:26;18.90;61.40
38237;DHT22;50101;49.438;11.098;2023-11-19T08:34:53;18.90;61.40
38237;DHT22;50101;49.438;11.098;2023-11-19T08:37:20;18.90;61.40
38237;DHT22;50101;49.438;11.098;2023-11-19T08:39:50;18.90;61.50
38237;DHT22;50101;49.438;11.098;2023-11-19T08:42:17;19.00;61.60
38237;DHT22;50101;49.438;11.098;2023-11-19T08:44:44;19.00;61.40
38237;DHT22;50101;49.438;11.098;2023-11-19T08:47:17;19.10;61.80
38237;DHT22;50101;49.438;11.098;2023-11-19T08:49:47;19.10;61.90
38237;DHT22;50101;49.438;11.098;2023-11-19T08:52:30;19.10;61.90
38237;DHT22;50101;49.438;11.098;2023-11-19T08:55:00;19.20;62.20
38237;DHT22;50101;49.438;11.098;2023-11-19T08:57:27;19.10;61.90
38237;DHT22;50101;49.438;11.098;2023-11-19T08:59:54;19.20;61.50
38237;DHT22;50101;49.438;11.098;2023-11-19T09:02:21;19.20;62.20
38237;DHT22;50101;49.438;11.098;2023-11-19T09:04:47;19.20;62.30
38237;DHT22;50101;49.438;11.098;2023-11-19T09:07:17;19.20;62.30
38237;DHT22;50101;49.438;11.098;2023-11-19T09:09:43;19.20;61.60
38237;DHT22;50101;49.438;11.098;2023-11-19T09:12:10;19.20;61.60
38237;DHT22;50101;49.438;11.098;2023-11-19T09:14:37;19.20;62.10
38237;DHT22;50101;49.438;11.098;2023-11-19T09:17:04;19.20;62.20
38237;DHT22;50101;49.438;11.098;2023-11-19T09:19:32;19.20;61.60
38237;DHT22;50101;49.438;11.098;2023-11-19T09:21:59;19.20;62.30
38237;DHT22;50101;49.438;11.098;2023-11-19T09:24:26;19.20;62.30
38237;DHT22;50101;49.438;11.098;2023-11-19T09:26:53;19.20;62.30
38237;DHT22;50101;49.438;11.098;2023-11-19T09:29:21;19.20;62.30
38237;DHT22;50101;49.438;11.098;2023-11-19T09:31:48;19.30;62.30
38237;DHT22;50101;49.438;11.098;2023-11-19T09:34:14;19.30;62.30
38237;DHT22;50101;49.438;11.098;2023-11-19T09:36:41;19.30;62.20
38237;DHT22;50101;49.438;11.098;2023-11-19T09:39:11;19.40;62.50
38237;DHT22;50101;49.438;11.098;2023-11-19T09:41:39;19.40;62.40
38237;DHT22;50101;49.438;11.098;2023-11-19T09:44:06;19.40;62.30
38237;DHT22;50101;49.438;11.098;2023-11-19T09:46:33;20.00;62.80
38237;DHT22;50101;49.438;11.098;2023-11-19T09:49:00;19.30;62.30
38237;DHT22;50101;49.438;11.098;2023-11-19T09:51:28;19.30;62.30
38237;DHT22;50101;49.438;11.098;2023-11-19T09:53:54;19.30;62.40
38237;DHT22;50101;49.438;11.098;2023-11-19T09:56:22;19.30;62.40
38237;DHT22;50101;49.438;11.098;2023-11-19T09:58:49;19.30;62.30
38237;DHT22;50101;49.438;11.098;2023-11-19T10:01:16;19.30;62.40
38237;DHT22;50101;49.438;11.098;2023-11-19T10:03:47;19.20;62.30
38237;DHT22;50101;49.438;11.098;2023-11-19T10:06:15;19.20;62.50
38237;DHT22;50101;49.438;11.098;2023-11-19T10:08:43;19.20;63.30
38237;DHT22;50101;49.438;11.098;2023-11-19T10:11:10;19.20;62.00
38237;DHT22;50101;49.438;11.098;2023-11-19T10:13:39;19.20;62.60
38237;DHT22;50101;49.438;11.098;2023-11-19T10:16:11;19.20;62.50
38237;DHT22;50101;49.438;11.098;2023-11-19T10:18:49;19.30;62.40
38237;DHT22;50101;49.438;11.098;2023-11-19T10:21:18;19.30;62.30
38237;DHT22;50101;49.438;11.098;2023-11-19T10:23:52;19.30;62.30
38237;DHT22;50101;49.438;11.098;2023-11-19T10:26:20;19.30;62.30
38237;DHT22;50101;49.438;11.098;2023-11-19T10:28:48;19.30;62.40
38237;DHT22;50101;49.438;11.098;2023-11-19T10:31:16;19.30;62.40
38237;DHT22;50101;49.438;11.098;2023-11-19T10:33:44;19.30;62.30
38237;DHT22;50101;49.438;11.098;2023-11-19T10:36:12;19.30;62.40
38237;DHT22;50101;49.438;11.098;2023-11-19T10:38:40;19.30;62.40
38237;DHT22;50101;49.438;11.098;2023-11-19T10:41:07;19.30;62.40
38237;DHT22;50101;49.438;11.098;2023-11-19T10:43:44;19.30;62.40
38237;DHT22;50101;49.438;11.098;2023-11-19T10:46:14;19.40;62.50
38237;DHT22;50101;49.438;11.098;2023-11-19T10:48:41;19.40;62.40
38237;DHT22;50101;49.438;11.098;2023-11-19T10:51:08;19.40;62.50
38237;DHT22;50101;49.438;11.098;2023-11-19T10:53:38;19.40;62.50
38237;DHT22;50101;49.438;11.098;2023-11-19T10:56:10;19.50;62.60
38237;DHT22;50101;49.438;11.098;2023-11-19T10:58:37;19.50;62.50
38237;DHT22;50101;49.438;11.098;2023-11-19T11:01:19;19.50;62.40
38237;DHT22;50101;49.438;11.098;2023-11-19T11:03:47;19.50;62.50
38237;DHT22;50101;49.438;11.098;2023-11-19T11:06:14;19.50;62.60
38237;DHT22;50101;49.438;11.098;2023-11-19T11:08:41;19.50;62.60
38237;DHT22;50101;49.438;11.098;2023-11-19T11:11:12;19.60;62.70
38237;DHT22;50101;49.438;11.098;2023-11-19T11:13:42;19.60;62.70
38237;DHT22;50101;49.438;11.098;2023-11-19T11:16:09;19.60;62.70
38237;DHT22;50101;49.438;11.098;2023-11-19T11:18:37;19.50;62.60
38237;DHT22;50101;49.438;11.098;2023-11-19T11:21:11;19.50;62.80
38237;DHT22;50101;49.438;11.098;2023-11-19T11:37:08;19.30;63.00
38237;DHT22;50101;49.438;11.098;2023-11-19T11:39:37;19.30;63.10
38237;DHT22;50101;49.438;11.098;2023-11-19T11:45:07;19.20;63.00
38237;DHT22;50101;49.438;11.098;2023-11-19T11:50:25;19.20;62.90
38237;DHT22;50101;49.438;11.098;2023-11-19T11:55:26;19.20;62.90
38237;DHT22;50101;49.438;11.098;2023-11-19T11:57:57;19.20;62.90
38237;DHT22;50101;49.438;11.098;2023-11-19T12:00:37;19.20;62.90
38237;DHT22;50101;49.438;11.098;2023-11-19T12:03:06;19.20;63.00
38237;DHT22;50101;49.438;11.098;2023-11-19T12:05:38;19.20;62.90
38237;DHT22;50101;49.438;11.098;2023-11-19T12:08:06;19.20;62.90
38237;DHT22;50101;49.438;11.098;2023-11-19T12:10:44;19.20;62.90
38237;DHT22;50101;49.438;11.098;2023-11-19T12:13:11;19.20;62.90
38237;DHT22;50101;49.438;11.098;2023-11-19T12:18:42;19.20;62.90
38237;DHT22;50101;49.438;11.098;2023-11-19T12:21:35;19.20;63.00
38237;DHT22;50101;49.438;11.098;2023-11-19T12:24:22;19.20;63.10
38237;DHT22;50101;49.438;11.098;2023-11-19T12:27:07;19.20;63.20
38237;DHT22;50101;49.438;11.098;2023-11-19T12:29:53;19.20;63.30
38237;DHT22;50101;49.438;11.098;2023-11-19T12:35:29;19.20;63.50
38237;DHT22;50101;49.438;11.098;2023-11-19T12:38:24;19.20;63.60
38237;DHT22;50101;49.438;11.098;2023-11-19T12:41:10;19.20;63.70
38237;DHT22;50101;49.438;11.098;2023-11-19T12:44:14;19.20;63.80
38237;DHT22;50101;49.438;11.098;2023-11-19T12:47:09;19.20;63.80
38237;DHT22;50101;49.438;11.098;2023-11-19T12:49:59;19.30;64.00
38237;DHT22;50101;49.438;11.098;2023-11-19T12:52:56;19.20;63.90
38237;DHT22;50101;49.438;11.098;2023-11-19T12:55:42;19.20;64.00
38237;DHT22;50101;49.438;11.098;2023-11-19T12:58:39;19.20;64.00
38237;DHT22;50101;49.438;11.098;2023-11-19T13:01:22;19.30;64.10
38237;DHT22;50101;49.438;11.098;2023-11-19T13:03:55;19.20;64.00
38237;DHT22;50101;49.438;11.098;2023-11-19T13:06:21;19.20;64.00
38237;DHT22;50101;49.438;11.098;2023-11-19T13:08:51;19.20;63.90
38237;DHT22;50101;49.438;11.098;2023-11-19T13:11:35;19.30;64.10
38237;DHT22;50101;49.438;11.098;2023-11-19T13:14:05;19.30;63.90
38237;DHT22;50101;49.438;11.098;2023-11-19T13:16:36;19.30;63.60
38237;DHT22;50101;49.438;11.098;2023-11-19T13:19:04;19.40;63.60
38237;DHT22;50101;49.438;11.098;2023-11-19T13:21:32;19.40;62.90
38237;DHT22;50101;49.438;11.098;2023-11-19T13:23:59;19.50;63.50
38237;DHT22;50101;49.438;11.098;2023-11-19T13:26:25;19.40;63.40
38237;DHT22;50101;49.438;11.098;2023-11-19T13:28:52;19.40;63.60
38237;DHT22;50101;49.438;11.098;2023-11-19T13:31:19;19.40;63.60
38237;DHT22;50101;49.438;11.098;2023-11-19T13:33:45;19.30;63.60
38237;DHT22;50101;49.438;11.098;2023-11-19T13:36:12;19.40;63.70
38237;DHT22;50101;49.438;11.098;2023-11-19T13:38:43;19.40;63.80
38237;DHT22;50101;49.438;11.098;2023-11-19T13:41:11;19.40;63.70
38237;DHT22;50101;49.438;11.098;2023-11-19T13:43:39;19.30;63.70
38237;DHT22;50101;49.438;11.098;2023-11-19T13:46:06;19.30;63.60
38237;DHT22;50101;49.438;11.098;2023-11-19T13:48:32;19.40;63.60
38237;DHT22;50101;49.438;11.098;2023-11-19T13:50:59;19.40;63.00
38237;DHT22;50101;49.438;11.098;2023-11-19T13:53:26;19.40;63.60
38237;DHT22;50101;49.438;11.098;2023-11-19T13:55:53;19.40;64.30
38237;DHT22;50101;49.438;11.098;2023-11-19T13:58:20;19.40;63.60
38237;DHT22;50101;49.438;11.098;2023-11-19T14:00:46;19.40;63.60
38237;DHT22;50101;49.438;11.098;2023-11-19T14:03:13;19.30;63.70
38237;DHT22;50101;49.438;11.098;2023-11-19T14:05:40;19.30;63.90
38237;DHT22;50101;49.438;11.098;2023-11-19T14:08:08;19.20;63.90
38237;DHT22;50101;49.438;11.098;2023-11-19T14:10:49;19.20;63.80
38237;DHT22;50101;49.438;11.098;2023-11-19T14:13:16;19.30;63.90
38237;DHT22;50101;49.438;11.098;2023-11-19T14:15:43;19.20;63.80
38237;DHT22;50101;49.438;11.098;2023-11-19T14:18:13;19.30;63.90
38237;DHT22;50101;49.438;11.098;2023-11-19T14:20:39;19.30;63.90
38237;DHT22;50101;49.438;11.098;2023-11-19T14:23:06;19.20;63.90
38237;DHT22;50101;49.438;11.098;2023-11-19T14:25:33;19.20;63.90
38237;DHT22;50101;49.438;11.098;2023-11-19T14:28:00;19.20;63.90
38237;DHT22;50101;49.438;11.098;2023-11-19T14:30:29;19.20;64.00
38237;DHT22;50101;49.438;11.098;2023-11-19T14:32:56;19.20;64.00
38237;DHT22;50101;49.438;11.098;2023-11-19T14:35:22;19.50;64.30
38237;DHT22;50101;49.438;11.098;2023-11-19T14:37:49;19.20;64.00
38237;DHT22;50101;49.438;11.098;2023-11-19T14:40:16;19.20;64.00
38237;DHT22;50101;49.438;11.098;2023-11-19T14:42:43;19.20;64.00
38237;DHT22;50101;49.438;11.098;2023-11-19T14:45:09;19.20;64.00
38237;DHT22;50101;49.438;11.098;2023-11-19T14:47:38;19.20;64.00
38237;DHT22;50101;49.438;11.098;2023-11-19T14:50:06;19.20;64.00
38237;DHT22;50101;49.438;11.098;2023-11-19T14:52:35;19.20;64.00
38237;DHT22;50101;49.438;11.098;2023-11-19T14:55:02;19.20;64.10
38237;DHT22;50101;49.438;11.098;2023-11-19T14:57:29;19.20;64.20
38237;DHT22;50101;49.438;11.098;2023-11-19T14:59:56;19.20;64.20
38237;DHT22;50101;49.438;11.098;2023-11-19T15:02:23;19.10;64.10
38237;DHT22;50101;49.438;11.098;2023-11-19T15:04:50;19.10;64.10
38237;DHT22;50101;49.438;11.098;2023-11-19T15:07:16;19.10;64.20
38237;DHT22;50101;49.438;11.098;2023-11-19T15:09:43;19.10;64.20
38237;DHT22;50101;49.438;11.098;2023-11-19T15:12:10;19.10;64.20
38237;DHT22;50101;49.438;11.098;2023-11-19T15:14:37;19.10;64.30
38237;DHT22;50101;49.438;11.098;2023-11-19T15:17:04;19.20;64.30
38237;DHT22;50101;49.438;11.098;2023-11-19T15:19:32;19.10;64.30
38237;DHT22;50101;49.438;11.098;2023-11-19T15:21:59;19.20;64.20
38237;DHT22;50101;49.438;11.098;2023-11-19T15:24:25;19.20;64.30
38237;DHT22;50101;49.438;11.098;2023-11-19T15:26:52;19.20;64.40
38237;DHT22;50101;49.438;11.098;2023-11-19T15:31:48;19.20;63.90
38237;DHT22;50101;49.438;11.098;2023-11-19T15:34:15;19.10;64.50
38237;DHT22;50101;49.438;11.098;2023-11-19T15:36:42;19.10;64.50
38237;DHT22;50101;49.438;11.098;2023-11-19T15:39:09;19.10;64.60
38237;DHT22;50101;49.438;11.098;2023-11-19T15:41:35;19.10;64.60
38237;DHT22;50101;49.438;11.098;2023-11-19T15:44:02;19.10;64.60
38237;DHT22;50101;49.438;11.098;2023-11-19T15:46:30;19.10;64.60
38237;DHT22;50101;49.438;11.098;2023-11-19T15:48:57;19.10;64.60
38237;DHT22;50101;49.438;11.098;2023-11-19T15:51:24;19.10;64.60
38237;DHT22;50101;49.438;11.098;2023-11-19T15:53:50;19.10;64.60
38237;DHT22;50101;49.438;11.098;2023-11-19T15:56:17;19.10;64.60
38237;DHT22;50101;49.438;11.098;2023-11-19T15:58:44;19.10;64.60